Bow Harmony — LAUC7 — position and weather

sailwx.info

Track history (hours):
 
Tides and Currents Weather Stations Pressure Air Temp Water Temp Dewpoint Dewpoint Depression Visibility Wind Speed Wind Dir Waves Ship Positions

Bow Harmony

Last reported at 2018-Feb-18 23:28 UTC. Time now 2018-Feb-18 23:45 UTC.
Position N 51°56' E 003°45'.

Length 170 m; draft 8.1 m.

Type: Ship (hazmat cat C). MMSI: 257441000.

Date/timePositionNaut miles runAvg speedWind from/ knotsBaromVisibWave heightAir tempDewpointWater temp
2018-Feb-18 23:28N 51°56' E 003°45'0 0.0
2018-Feb-18 22:55N 51°56' E 003°45'0 0.0
2018-Feb-18 22:25N 51°56' E 003°45'0 0.0
2018-Feb-18 21:58N 51°56' E 003°45'0 0.0
2018-Feb-18 21:28N 51°56' E 003°45'0 0.1
2018-Feb-18 20:58N 51°56' E 003°45'0 0.2
2018-Feb-18 20:28N 51°56' E 003°45'0 0.2
2018-Feb-18 19:58N 51°57' E 003°45'0 0.0
2018-Feb-18 19:28N 51°57' E 003°45'0 0.1
2018-Feb-18 18:58N 51°57' E 003°45'0 0.0
2018-Feb-18 18:28N 51°57' E 003°45'0 0.0
2018-Feb-18 17:49N 51°56' E 003°45'0 0.0
2018-Feb-18 17:28N 51°57' E 003°45'0 0.2
2018-Feb-18 17:00N 51°56' E 003°45'2 3.0
2018-Feb-18 16:30N 51°57' E 003°43'1413.4
2018-Feb-18 15:26N 51°55' E 003°20'2115.1
2018-Feb-18 14:01N 51°49' E 002°46'115.1
2018-Feb-18 13:58N 51°49' E 002°45'714.5
2018-Feb-18 13:30N 51°46' E 002°36'915.0
2018-Feb-18 12:56N 51°39' E 002°27'614.4
2018-Feb-18 12:30N 51°34' E 002°21'714.0
2018-Feb-18 12:01N 51°29' E 002°13'612.0
2018-Feb-18 11:30N 51°24' E 002°08'713.6
2018-Feb-18 11:00N 51°21' E 002°17'714.9
2018-Feb-18 10:30N 51°22' E 002°29'5 8.7
2018-Feb-18 09:59N 51°23' E 002°36'510.2
2018-Feb-18 09:30N 51°24' E 002°44'713.6
2018-Feb-18 09:00N 51°25' E 002°54'714.8
2018-Feb-18 08:30N 51°24' E 003°06'815.8
2018-Feb-18 08:00N 51°25' E 003°19'815.9
2018-Feb-18 07:30N 51°25' E 003°32'612.8
2018-Feb-18 07:00N 51°26' E 003°42'714.6
2018-Feb-18 06:30N 51°21' E 003°51'815.1
2018-Feb-18 06:00N 51°26' E 003°59'613.0
2018-Feb-18 05:30N 51°22' E 004°08'5 9.1
2018-Feb-18 05:00N 51°21' E 004°15'2 3.4
2018-Feb-18 04:31N 51°21' E 004°17'0 0.0
2018-Feb-18 04:00N 51°21' E 004°17'0 0.1
2018-Feb-18 03:31N 51°21' E 004°17'2 4.6
2018-Feb-18 03:00N 51°19' E 004°19'2 5.0
2018-Feb-18 02:30N 51°16' E 004°20'2 3.4
2018-Feb-18 01:59N 51°15' E 004°23'0 0.0
2018-Feb-18 01:29N 51°15' E 004°23'0 0.0
2018-Feb-18 00:59N 51°15' E 004°23'0 0.0
2018-Feb-18 00:29N 51°15' E 004°23'0 0.0
2018-Feb-17 23:59N 51°15' E 004°23'0 0.0
2018-Feb-17 23:26N 51°15' E 004°23'0 0.0
2018-Feb-17 22:56N 51°15' E 004°23'0 0.0
2018-Feb-17 22:29N 51°15' E 004°23'0 0.0
2018-Feb-17 21:59N 51°15' E 004°23'0 0.0
2018-Feb-17 21:29N 51°15' E 004°23'0 0.0
2018-Feb-17 20:59N 51°15' E 004°23'0 0.0
2018-Feb-17 20:26N 51°15' E 004°23'0 0.0
2018-Feb-17 19:59N 51°15' E 004°23'0 0.0
2018-Feb-17 19:29N 51°15' E 004°23'0 0.0
2018-Feb-17 18:59N 51°15' E 004°23'0 0.0
2018-Feb-17 18:29N 51°15' E 004°23'0 0.0
2018-Feb-17 17:59N 51°15' E 004°23'0 0.0
2018-Feb-17 17:29N 51°15' E 004°23'0 0.0
2018-Feb-17 16:59N 51°15' E 004°23'0 0.0
2018-Feb-17 16:29N 51°15' E 004°23'0 0.0
2018-Feb-17 15:59N 51°15' E 004°23'0 0.0
2018-Feb-17 15:29N 51°15' E 004°23'0 0.0
2018-Feb-17 14:56N 51°15' E 004°23'0 0.0
2018-Feb-17 14:29N 51°15' E 004°23'0 0.0
2018-Feb-17 13:59N 51°15' E 004°23'0 0.0
2018-Feb-17 13:29N 51°15' E 004°23'0 0.0
2018-Feb-17 12:59N 51°15' E 004°23'0 0.0
2018-Feb-17 12:29N 51°15' E 004°23'0 0.0
2018-Feb-17 11:59N 51°15' E 004°23'0 0.0
2018-Feb-17 11:29N 51°15' E 004°23'0 0.0
2018-Feb-17 10:59N 51°15' E 004°23'0 0.0
2018-Feb-17 10:29N 51°15' E 004°23'0 0.0
2018-Feb-17 09:59N 51°15' E 004°23'0 0.0
2018-Feb-17 09:29N 51°15' E 004°23'0 0.0
2018-Feb-17 08:59N 51°15' E 004°23'0 0.0
2018-Feb-17 08:29N 51°15' E 004°23'0 0.0
2018-Feb-17 07:59N 51°15' E 004°23'0 0.0
2018-Feb-17 07:29N 51°15' E 004°23'0 0.0
2018-Feb-17 06:59N 51°15' E 004°23'0 0.0
2018-Feb-17 06:29N 51°15' E 004°23'0 0.0
2018-Feb-17 05:59N 51°15' E 004°23'0 0.0
2018-Feb-17 05:29N 51°15' E 004°23'0 0.0
2018-Feb-17 04:59N 51°15' E 004°23'0 0.0
2018-Feb-17 04:29N 51°15' E 004°23'0 0.0
2018-Feb-17 03:59N 51°15' E 004°23'0 0.0
2018-Feb-17 03:29N 51°15' E 004°23'0 0.0
2018-Feb-17 02:59N 51°15' E 004°23'0 0.0
2018-Feb-17 02:29N 51°15' E 004°23'0 0.0
2018-Feb-17 01:59N 51°15' E 004°23'0 0.0
2018-Feb-17 01:29N 51°15' E 004°23'0 0.0
2018-Feb-17 00:59N 51°15' E 004°23'0 0.0
2018-Feb-17 00:29N 51°15' E 004°23'0 0.0
2018-Feb-16 23:59N 51°15' E 004°23'0 0.0
2018-Feb-16 23:29N 51°15' E 004°23'0 0.0
2018-Feb-16 22:59N 51°15' E 004°23'0 0.0
2018-Feb-16 22:29N 51°15' E 004°23'1 1.6
2018-Feb-16 22:01N 51°15' E 004°21'3 5.1
2018-Feb-16 21:31N 51°18' E 004°20'3 6.9
2018-Feb-16 21:00N 51°21' E 004°18'0 0.2
2018-Feb-16 20:30N 51°21' E 004°18'0 0.0
2018-Feb-16 20:00N 51°21' E 004°18'0 0.0
2018-Feb-16 19:27N 51°21' E 004°18'0 0.0
2018-Feb-16 19:00N 51°21' E 004°18'0 0.0
2018-Feb-16 18:30N 51°21' E 004°18'0 0.0
2018-Feb-16 18:00N 51°21' E 004°18'0 0.0
2018-Feb-16 17:30N 51°21' E 004°18'0 0.0
2018-Feb-16 17:00N 51°21' E 004°18'0 0.0
2018-Feb-16 16:24N 51°21' E 004°18'0 0.0
2018-Feb-16 16:00N 51°21' E 004°18'0 0.0
2018-Feb-16 15:30N 51°21' E 004°18'0 0.0
2018-Feb-16 15:00N 51°21' E 004°18'0 0.0
2018-Feb-16 14:30N 51°21' E 004°18'0 0.0
2018-Feb-16 14:00N 51°21' E 004°18'0 0.0
2018-Feb-16 13:30N 51°21' E 004°18'0 0.0
2018-Feb-16 13:00N 51°21' E 004°18'0 0.0
2018-Feb-16 12:30N 51°21' E 004°18'0 0.0
2018-Feb-16 12:00N 51°21' E 004°18'0 0.0
2018-Feb-16 11:30N 51°21' E 004°18'0 0.0
2018-Feb-16 11:00N 51°21' E 004°18'0 0.0
2018-Feb-16 10:30N 51°21' E 004°18'0 0.0
2018-Feb-16 10:00N 51°21' E 004°18'0 0.0
2018-Feb-16 09:30N 51°21' E 004°18'0 0.3
2018-Feb-16 09:00N 51°21' E 004°18'2 2.6
2018-Feb-16 08:14N 51°19' E 004°18'0 0.0
2018-Feb-16 07:44N 51°19' E 004°18'0 0.0
2018-Feb-16 07:28N 51°19' E 004°18'0 0.0
2018-Feb-16 06:59N 51°19' E 004°18'0 0.0
2018-Feb-16 06:23N 51°19' E 004°18'0 0.0
2018-Feb-16 05:59N 51°19' E 004°18'0 0.0
2018-Feb-16 05:23N 51°19' E 004°18'0 0.0
2018-Feb-16 04:50N 51°19' E 004°18'0 0.0
2018-Feb-16 04:26N 51°19' E 004°18'0 0.0
2018-Feb-16 03:58N 51°19' E 004°18'0 0.0
2018-Feb-16 03:29N 51°19' E 004°18'0 0.0
2018-Feb-16 02:53N 51°19' E 004°18'0 0.0
2018-Feb-16 02:23N 51°19' E 004°18'0 0.0
2018-Feb-16 01:53N 51°19' E 004°18'0 0.0
2018-Feb-16 01:29N 51°19' E 004°18'0 0.0
2018-Feb-16 00:53N 51°19' E 004°18'0 0.0
2018-Feb-16 00:16N 51°19' E 004°18'0 0.0
2018-Feb-15 23:52N 51°19' E 004°18'0 0.0
2018-Feb-15 23:29N 51°19' E 004°18'0 0.0
2018-Feb-15 22:56N 51°19' E 004°18'0 0.0
2018-Feb-15 22:29N 51°19' E 004°18'0 0.0
2018-Feb-15 21:59N 51°19' E 004°18'0 0.0
2018-Feb-15 21:26N 51°19' E 004°18'0 0.0
2018-Feb-15 20:59N 51°19' E 004°18'0 0.0
2018-Feb-15 20:28N 51°19' E 004°18'0 0.0
2018-Feb-15 19:53N 51°19' E 004°18'0 0.0
2018-Feb-15 19:29N 51°19' E 004°18'0 0.0
2018-Feb-15 18:53N 51°19' E 004°18'0 0.0
2018-Feb-15 18:17N 51°19' E 004°18'0 0.0
2018-Feb-15 17:59N 51°19' E 004°18'0 0.0
2018-Feb-15 17:29N 51°19' E 004°18'0 0.0
2018-Feb-15 16:58N 51°19' E 004°18'0 0.0
2018-Feb-15 16:29N 51°19' E 004°18'0 0.0
2018-Feb-15 15:52N 51°19' E 004°18'0 0.0
2018-Feb-15 15:29N 51°19' E 004°18'1 1.6
2018-Feb-15 15:00N 51°20' E 004°18'1 2.8
2018-Feb-15 14:30N 51°21' E 004°17'0 0.0
2018-Feb-15 13:59N 51°21' E 004°17'0 0.0
2018-Feb-15 13:30N 51°21' E 004°17'2 3.1
2018-Feb-15 13:00N 51°19' E 004°16'3 5.5
2018-Feb-15 12:30N 51°17' E 004°15'0 0.0
2018-Feb-15 12:00N 51°17' E 004°15'0 0.0
2018-Feb-15 11:30N 51°17' E 004°15'1 1.3
2018-Feb-15 11:00N 51°17' E 004°14'0 0.0
2018-Feb-14 19:38N 51°17' E 004°14'0 0.0
2018-Feb-13 19:17N 51°17' E 004°14'0 0.4
2018-Feb-13 19:00N 51°17' E 004°14'1 2.4
2018-Feb-13 18:31N 51°16' E 004°13'0 0.0
2018-Feb-13 18:01N 51°16' E 004°13'0 0.0
2018-Feb-13 17:29N 51°16' E 004°13'0 0.0
2018-Feb-13 16:59N 51°16' E 004°13'0 0.0
2018-Feb-13 16:29N 51°16' E 004°13'0 0.0
2018-Feb-13 15:53N 51°16' E 004°13'0 0.0
2018-Feb-13 15:29N 51°16' E 004°13'0 0.0
2018-Feb-13 14:59N 51°16' E 004°13'0 0.0
2018-Feb-13 14:23N 51°16' E 004°13'0 0.0
2018-Feb-13 13:56N 51°16' E 004°13'0 0.0
2018-Feb-13 13:29N 51°16' E 004°13'0 0.0
2018-Feb-13 12:59N 51°16' E 004°13'0 0.0
2018-Feb-13 12:29N 51°16' E 004°13'0 0.0
2018-Feb-13 11:56N 51°16' E 004°13'0 0.0
2018-Feb-13 11:17N 51°16' E 004°13'0 0.0
2018-Feb-13 10:56N 51°16' E 004°13'0 0.0
2018-Feb-13 10:29N 51°16' E 004°13'0 0.0
2018-Feb-13 09:56N 51°16' E 004°13'0 0.0
2018-Feb-13 09:26N 51°16' E 004°13'0 0.0
2018-Feb-13 08:47N 51°16' E 004°13'0 0.0
2018-Feb-13 07:56N 51°16' E 004°13'0 0.0
2018-Feb-13 07:29N 51°16' E 004°13'0 0.0
2018-Feb-13 06:53N 51°16' E 004°13'0 0.0
2018-Feb-13 06:26N 51°16' E 004°13'0 0.0
2018-Feb-13 05:59N 51°16' E 004°13'0 0.0
2018-Feb-13 05:29N 51°16' E 004°13'0 0.0
2018-Feb-13 04:59N 51°16' E 004°13'0 0.0
2018-Feb-13 04:29N 51°16' E 004°13'0 0.0
2018-Feb-13 03:59N 51°16' E 004°13'0 0.0
2018-Feb-13 03:26N 51°16' E 004°13'0 0.0
2018-Feb-13 02:59N 51°16' E 004°13'0 0.0
2018-Feb-13 02:29N 51°16' E 004°13'0 0.0
2018-Feb-13 01:59N 51°16' E 004°13'0 0.0
2018-Feb-13 01:29N 51°16' E 004°13'0 0.0
2018-Feb-13 00:59N 51°16' E 004°13'0 0.0
2018-Feb-13 00:29N 51°16' E 004°13'0 0.0
2018-Feb-12 23:53N 51°16' E 004°13'0 0.0
2018-Feb-12 23:29N 51°16' E 004°13'0 0.0
2018-Feb-12 22:59N 51°16' E 004°13'0 0.0
2018-Feb-12 21:47N 51°16' E 004°13'0 0.0
2018-Feb-12 21:29N 51°16' E 004°13'0 0.0
2018-Feb-12 20:59N 51°16' E 004°13'0 0.0
2018-Feb-12 20:05N 51°16' E 004°13'0 0.0
2018-Feb-12 19:56N 51°16' E 004°13'0 0.0
2018-Feb-12 19:26N 51°16' E 004°13'0 0.0
2018-Feb-12 18:59N 51°16' E 004°13'0 0.0
2018-Feb-12 18:29N 51°16' E 004°13'0 0.0
2018-Feb-12 17:35N 51°16' E 004°13'0 0.0
2018-Feb-12 17:29N 51°16' E 004°13'0 0.0
2018-Feb-12 16:56N 51°16' E 004°13'0 0.0
2018-Feb-12 16:08N 51°16' E 004°13'0 0.0
2018-Feb-12 15:56N 51°16' E 004°13'0 0.0
2018-Feb-12 15:14N 51°16' E 004°13'0 0.0
2018-Feb-12 14:56N 51°16' E 004°13'0 0.0
2018-Feb-12 13:56N 51°16' E 004°13'0 0.0
2018-Feb-12 13:29N 51°16' E 004°13'0 0.0
2018-Feb-12 12:50N 51°16' E 004°13'0 0.0
2018-Feb-12 12:26N 51°16' E 004°13'0 0.0
2018-Feb-12 11:56N 51°16' E 004°13'0 0.0
2018-Feb-12 11:26N 51°16' E 004°13'0 0.0
2018-Feb-12 10:59N 51°16' E 004°13'0 0.0
2018-Feb-12 09:14N 51°16' E 004°13'0 0.0
2018-Feb-12 08:56N 51°16' E 004°13'0 0.0
2018-Feb-12 08:23N 51°16' E 004°13'0 0.0
2018-Feb-12 07:20N 51°16' E 004°13'0 0.0
2018-Feb-12 06:53N 51°16' E 004°13'0 0.0
2018-Feb-12 06:30N 51°16' E 004°13'0 0.0
2018-Feb-12 06:00N 51°16' E 004°13'0 0.0
2018-Feb-12 05:30N 51°16' E 004°13'1 2.0
2018-Feb-12 05:00N 51°16' E 004°14'0 0.8
2018-Feb-12 04:30N 51°17' E 004°15'0 0.0
2018-Feb-12 04:00N 51°17' E 004°15'0 0.1
2018-Feb-12 03:30N 51°17' E 004°15'2 4.1
2018-Feb-12 03:00N 51°19' E 004°16'3 6.6
2018-Feb-12 02:30N 51°22' E 004°14'3 6.1
2018-Feb-12 02:00N 51°23' E 004°09'5 9.4
2018-Feb-12 01:30N 51°24' E 004°02'3 5.8
2018-Feb-12 01:00N 51°24' E 003°57'611.5
2018-Feb-12 00:30N 51°21' E 003°50'611.7
2018-Feb-12 00:00N 51°24' E 003°43'5 9.6
2018-Feb-11 23:30N 51°26' E 003°35'4 8.6
2018-Feb-11 23:00N 51°25' E 003°28'1 1.1
2018-Feb-11 22:30N 51°25' E 003°28'0 0.9
2018-Feb-11 22:00N 51°25' E 003°29'1 1.2
2018-Feb-11 21:30N 51°25' E 003°30'1 1.2
2018-Feb-11 21:00N 51°26' E 003°30'3 5.1
2018-Feb-11 20:30N 51°26' E 003°35'1 1.2
2018-Feb-11 20:00N 51°25' E 003°34'612.1
2018-Feb-11 19:30N 51°24' E 003°24'611.6
2018-Feb-11 19:00N 51°25' E 003°15'611.0
2018-Feb-11 18:30N 51°24' E 003°06'511.0
2018-Feb-11 18:00N 51°25' E 002°58'510.7
2018-Feb-11 17:30N 51°25' E 002°49'5 9.6
2018-Feb-11 16:59N 51°22' E 002°43'4 7.6
2018-Feb-11 16:30N 51°24' E 002°37'2 2.3
2018-Feb-11 15:46N 51°25' E 002°36'0 0.0
2018-Feb-11 15:28N 51°25' E 002°36'0 0.0
2018-Feb-11 14:58N 51°25' E 002°36'0 0.1
2018-Feb-11 14:28N 51°25' E 002°36'0 0.0
2018-Feb-11 13:58N 51°25' E 002°36'0 0.1
2018-Feb-11 13:25N 51°25' E 002°36'0 0.0
2018-Feb-11 12:58N 51°25' E 002°36'0 0.0
2018-Feb-11 12:28N 51°25' E 002°36'0 0.0
2018-Feb-11 11:58N 51°25' E 002°36'0 0.0
2018-Feb-11 11:28N 51°25' E 002°36'0 0.0
2018-Feb-11 10:58N 51°25' E 002°36'0 0.0
2018-Feb-11 10:13N 51°25' E 002°36'0 0.1
2018-Feb-11 09:58N 51°25' E 002°36'0 0.0
2018-Feb-11 09:13N 51°25' E 002°36'0 0.0
2018-Feb-11 08:58N 51°25' E 002°36'0 0.0
2018-Feb-11 08:28N 51°25' E 002°36'0 0.0
2018-Feb-11 07:58N 51°25' E 002°36'0 0.0
2018-Feb-11 07:28N 51°25' E 002°36'0 0.0
2018-Feb-11 06:55N 51°25' E 002°36'0 0.0
2018-Feb-11 06:19N 51°25' E 002°36'0 0.0
2018-Feb-11 05:55N 51°25' E 002°36'0 0.0
2018-Feb-11 05:22N 51°25' E 002°36'0 0.0
2018-Feb-11 04:58N 51°25' E 002°36'0 0.0
2018-Feb-11 04:28N 51°25' E 002°36'0 0.1
2018-Feb-11 03:58N 51°25' E 002°36'0 0.0
2018-Feb-11 03:19N 51°25' E 002°36'0 0.2
2018-Feb-11 02:58N 51°25' E 002°36'0 0.0
2018-Feb-11 02:28N 51°25' E 002°36'0 0.0
2018-Feb-11 01:55N 51°25' E 002°35'0 0.1
2018-Feb-11 01:28N 51°25' E 002°36'0 0.0
2018-Feb-11 00:58N 51°25' E 002°36'0 0.0
2018-Feb-11 00:22N 51°25' E 002°36'0 0.0
2018-Feb-10 23:55N 51°25' E 002°36'0 0.0
2018-Feb-10 23:28N 51°25' E 002°36'0 0.0
2018-Feb-10 22:58N 51°25' E 002°36'0 0.0
2018-Feb-10 22:22N 51°25' E 002°36'0 0.0
2018-Feb-10 21:43N 51°25' E 002°36'0 0.0
2018-Feb-10 21:25N 51°25' E 002°36'0 0.0
2018-Feb-10 21:01N 51°25' E 002°36'0 0.0
2018-Feb-10 20:22N 51°25' E 002°36'0 0.0
2018-Feb-10 19:58N 51°25' E 002°36'0 0.0
2018-Feb-10 19:28N 51°25' E 002°36'0 0.0
2018-Feb-10 18:58N 51°25' E 002°36'0 0.0
2018-Feb-10 18:28N 51°25' E 002°35'0 0.0
2018-Feb-10 17:52N 51°25' E 002°35'0 0.0
2018-Feb-10 17:28N 51°25' E 002°35'0 0.1
2018-Feb-10 16:58N 51°25' E 002°35'0 0.0
2018-Feb-10 16:10N 51°25' E 002°36'0 0.0
2018-Feb-10 15:55N 51°25' E 002°36'0 0.0
2018-Feb-10 15:28N 51°25' E 002°36'0 0.0
2018-Feb-10 14:46N 51°25' E 002°36'0 0.0
2018-Feb-10 14:28N 51°25' E 002°36'0 0.0
2018-Feb-10 13:52N 51°25' E 002°36'0 0.0
2018-Feb-10 13:28N 51°25' E 002°36'0 0.0
2018-Feb-10 12:58N 51°25' E 002°36'0 0.0
2018-Feb-10 12:19N 51°25' E 002°36'0 0.0
2018-Feb-10 11:52N 51°25' E 002°36'0 0.0
2018-Feb-10 11:28N 51°25' E 002°36'0 0.0
2018-Feb-10 10:58N 51°25' E 002°36'0 0.0
2018-Feb-10 10:25N 51°25' E 002°36'0 0.0
2018-Feb-10 09:49N 51°25' E 002°36'0 0.0
2018-Feb-10 09:28N 51°25' E 002°36'0 0.1
2018-Feb-10 08:58N 51°25' E 002°36'0 0.1
2018-Feb-10 08:28N 51°25' E 002°36'0 0.1
2018-Feb-10 07:58N 51°25' E 002°36'0 0.1
2018-Feb-10 07:28N 51°25' E 002°36'0 0.1
2018-Feb-10 06:58N 51°25' E 002°35'0 0.0
2018-Feb-10 06:28N 51°25' E 002°35'0 0.1
2018-Feb-10 05:55N 51°25' E 002°35'0 0.1
2018-Feb-10 05:28N 51°25' E 002°35'0 0.1
2018-Feb-10 04:58N 51°25' E 002°35'0 0.0
2018-Feb-10 04:16N 51°25' E 002°35'0 0.0
2018-Feb-10 03:52N 51°25' E 002°35'0 0.0
2018-Feb-10 03:25N 51°25' E 002°35'0 1.1
2018-Feb-10 03:00N 51°25' E 002°36'4 7.9
2018-Feb-10 02:30N 51°22' E 002°31'611.7
2018-Feb-10 02:01N 51°19' E 002°23'612.0
2018-Feb-10 01:31N 51°16' E 002°15'612.1
2018-Feb-10 01:00N 51°13' E 002°06'612.4
2018-Feb-10 00:30N 51°10' E 001°57'612.3
2018-Feb-10 00:00N 51°08' E 001°48'612.1
2018-Feb-09 23:31N 51°04' E 001°41'612.4
2018-Feb-09 23:01N 50°59' E 001°35'312.8
2018-Feb-09 22:46N 50°57' E 001°31'912.0
2018-Feb-09 22:01N 50°49' E 001°24'12013.3
2018-Feb-09 13:01N 50°09' W 001°33'5213.1
2018-Feb-09 09:00N 49°49' W 002°49'  
Track history (hours):
 
Tides and Currents Weather Stations Pressure Air Temp Water Temp Dewpoint Dewpoint Depression Visibility Wind Speed Wind Dir Waves Ship Positions

Bow Harmony

Last reported at 2018-Feb-18 23:28 UTC. Time now 2018-Feb-18 23:45 UTC.
Position N 51°56' E 003°45'.

Length 170 m; draft 8.1 m.

Type: Ship (hazmat cat C). MMSI: 257441000.

Date/timePositionNaut miles runAvg speedWind from/ knotsBaromVisibWave heightAir tempDewpointWater temp
2018-Feb-18 23:28N 51°56' E 003°45'0 0.0
2018-Feb-18 22:55N 51°56' E 003°45'0 0.0
2018-Feb-18 22:25N 51°56' E 003°45'0 0.0
2018-Feb-18 21:58N 51°56' E 003°45'0 0.0
2018-Feb-18 21:28N 51°56' E 003°45'0 0.1
2018-Feb-18 20:58N 51°56' E 003°45'0 0.2
2018-Feb-18 20:28N 51°56' E 003°45'0 0.2
2018-Feb-18 19:58N 51°57' E 003°45'0 0.0
2018-Feb-18 19:28N 51°57' E 003°45'0 0.1
2018-Feb-18 18:58N 51°57' E 003°45'0 0.0
2018-Feb-18 18:28N 51°57' E 003°45'0 0.0
2018-Feb-18 17:49N 51°56' E 003°45'0 0.0
2018-Feb-18 17:28N 51°57' E 003°45'0 0.2
2018-Feb-18 17:00N 51°56' E 003°45'2 3.0
2018-Feb-18 16:30N 51°57' E 003°43'1413.4
2018-Feb-18 15:26N 51°55' E 003°20'2115.1
2018-Feb-18 14:01N 51°49' E 002°46'115.1
2018-Feb-18 13:58N 51°49' E 002°45'714.5
2018-Feb-18 13:30N 51°46' E 002°36'915.0
2018-Feb-18 12:56N 51°39' E 002°27'614.4
2018-Feb-18 12:30N 51°34' E 002°21'714.0
2018-Feb-18 12:01N 51°29' E 002°13'612.0
2018-Feb-18 11:30N 51°24' E 002°08'713.6
2018-Feb-18 11:00N 51°21' E 002°17'714.9
2018-Feb-18 10:30N 51°22' E 002°29'5 8.7
2018-Feb-18 09:59N 51°23' E 002°36'510.2
2018-Feb-18 09:30N 51°24' E 002°44'713.6
2018-Feb-18 09:00N 51°25' E 002°54'714.8
2018-Feb-18 08:30N 51°24' E 003°06'815.8
2018-Feb-18 08:00N 51°25' E 003°19'815.9
2018-Feb-18 07:30N 51°25' E 003°32'612.8
2018-Feb-18 07:00N 51°26' E 003°42'714.6
2018-Feb-18 06:30N 51°21' E 003°51'815.1
2018-Feb-18 06:00N 51°26' E 003°59'613.0
2018-Feb-18 05:30N 51°22' E 004°08'5 9.1
2018-Feb-18 05:00N 51°21' E 004°15'2 3.4
2018-Feb-18 04:31N 51°21' E 004°17'0 0.0
2018-Feb-18 04:00N 51°21' E 004°17'0 0.1
2018-Feb-18 03:31N 51°21' E 004°17'2 4.6
2018-Feb-18 03:00N 51°19' E 004°19'2 5.0
2018-Feb-18 02:30N 51°16' E 004°20'2 3.4
2018-Feb-18 01:59N 51°15' E 004°23'0 0.0
2018-Feb-18 01:29N 51°15' E 004°23'0 0.0
2018-Feb-18 00:59N 51°15' E 004°23'0 0.0
2018-Feb-18 00:29N 51°15' E 004°23'0 0.0
2018-Feb-17 23:59N 51°15' E 004°23'0 0.0
2018-Feb-17 23:26N 51°15' E 004°23'0 0.0
2018-Feb-17 22:56N 51°15' E 004°23'0 0.0
2018-Feb-17 22:29N 51°15' E 004°23'0 0.0
2018-Feb-17 21:59N 51°15' E 004°23'0 0.0
2018-Feb-17 21:29N 51°15' E 004°23'0 0.0
2018-Feb-17 20:59N 51°15' E 004°23'0 0.0
2018-Feb-17 20:26N 51°15' E 004°23'0 0.0
2018-Feb-17 19:59N 51°15' E 004°23'0 0.0
2018-Feb-17 19:29N 51°15' E 004°23'0 0.0
2018-Feb-17 18:59N 51°15' E 004°23'0 0.0
2018-Feb-17 18:29N 51°15' E 004°23'0 0.0
2018-Feb-17 17:59N 51°15' E 004°23'0 0.0
2018-Feb-17 17:29N 51°15' E 004°23'0 0.0
2018-Feb-17 16:59N 51°15' E 004°23'0 0.0
2018-Feb-17 16:29N 51°15' E 004°23'0 0.0
2018-Feb-17 15:59N 51°15' E 004°23'0 0.0
2018-Feb-17 15:29N 51°15' E 004°23'0 0.0
2018-Feb-17 14:56N 51°15' E 004°23'0 0.0
2018-Feb-17 14:29N 51°15' E 004°23'0 0.0
2018-Feb-17 13:59N 51°15' E 004°23'0 0.0
2018-Feb-17 13:29N 51°15' E 004°23'0 0.0
2018-Feb-17 12:59N 51°15' E 004°23'0 0.0
2018-Feb-17 12:29N 51°15' E 004°23'0 0.0
2018-Feb-17 11:59N 51°15' E 004°23'0 0.0
2018-Feb-17 11:29N 51°15' E 004°23'0 0.0
2018-Feb-17 10:59N 51°15' E 004°23'0 0.0
2018-Feb-17 10:29N 51°15' E 004°23'0 0.0
2018-Feb-17 09:59N 51°15' E 004°23'0 0.0
2018-Feb-17 09:29N 51°15' E 004°23'0 0.0
2018-Feb-17 08:59N 51°15' E 004°23'0 0.0
2018-Feb-17 08:29N 51°15' E 004°23'0 0.0
2018-Feb-17 07:59N 51°15' E 004°23'0 0.0
2018-Feb-17 07:29N 51°15' E 004°23'0 0.0
2018-Feb-17 06:59N 51°15' E 004°23'0 0.0
2018-Feb-17 06:29N 51°15' E 004°23'0 0.0
2018-Feb-17 05:59N 51°15' E 004°23'0 0.0
2018-Feb-17 05:29N 51°15' E 004°23'0 0.0
2018-Feb-17 04:59N 51°15' E 004°23'0 0.0
2018-Feb-17 04:29N 51°15' E 004°23'0 0.0
2018-Feb-17 03:59N 51°15' E 004°23'0 0.0
2018-Feb-17 03:29N 51°15' E 004°23'0 0.0
2018-Feb-17 02:59N 51°15' E 004°23'0 0.0
2018-Feb-17 02:29N 51°15' E 004°23'0 0.0
2018-Feb-17 01:59N 51°15' E 004°23'0 0.0
2018-Feb-17 01:29N 51°15' E 004°23'0 0.0
2018-Feb-17 00:59N 51°15' E 004°23'0 0.0
2018-Feb-17 00:29N 51°15' E 004°23'0 0.0
2018-Feb-16 23:59N 51°15' E 004°23'0 0.0
2018-Feb-16 23:29N 51°15' E 004°23'0 0.0
2018-Feb-16 22:59N 51°15' E 004°23'0 0.0
2018-Feb-16 22:29N 51°15' E 004°23'1 1.6
2018-Feb-16 22:01N 51°15' E 004°21'3 5.1
2018-Feb-16 21:31N 51°18' E 004°20'3 6.9
2018-Feb-16 21:00N 51°21' E 004°18'0 0.2
2018-Feb-16 20:30N 51°21' E 004°18'0 0.0
2018-Feb-16 20:00N 51°21' E 004°18'0 0.0
2018-Feb-16 19:27N 51°21' E 004°18'0 0.0
2018-Feb-16 19:00N 51°21' E 004°18'0 0.0
2018-Feb-16 18:30N 51°21' E 004°18'0 0.0
2018-Feb-16 18:00N 51°21' E 004°18'0 0.0
2018-Feb-16 17:30N 51°21' E 004°18'0 0.0
2018-Feb-16 17:00N 51°21' E 004°18'0 0.0
2018-Feb-16 16:24N 51°21' E 004°18'0 0.0
2018-Feb-16 16:00N 51°21' E 004°18'0 0.0
2018-Feb-16 15:30N 51°21' E 004°18'0 0.0
2018-Feb-16 15:00N 51°21' E 004°18'0 0.0
2018-Feb-16 14:30N 51°21' E 004°18'0 0.0
2018-Feb-16 14:00N 51°21' E 004°18'0 0.0
2018-Feb-16 13:30N 51°21' E 004°18'0 0.0
2018-Feb-16 13:00N 51°21' E 004°18'0 0.0
2018-Feb-16 12:30N 51°21' E 004°18'0 0.0
2018-Feb-16 12:00N 51°21' E 004°18'0 0.0
2018-Feb-16 11:30N 51°21' E 004°18'0 0.0
2018-Feb-16 11:00N 51°21' E 004°18'0 0.0
2018-Feb-16 10:30N 51°21' E 004°18'0 0.0
2018-Feb-16 10:00N 51°21' E 004°18'0 0.0
2018-Feb-16 09:30N 51°21' E 004°18'0 0.3
2018-Feb-16 09:00N 51°21' E 004°18'2 2.6
2018-Feb-16 08:14N 51°19' E 004°18'0 0.0
2018-Feb-16 07:44N 51°19' E 004°18'0 0.0
2018-Feb-16 07:28N 51°19' E 004°18'0 0.0
2018-Feb-16 06:59N 51°19' E 004°18'0 0.0
2018-Feb-16 06:23N 51°19' E 004°18'0 0.0
2018-Feb-16 05:59N 51°19' E 004°18'0 0.0
2018-Feb-16 05:23N 51°19' E 004°18'0 0.0
2018-Feb-16 04:50N 51°19' E 004°18'0 0.0
2018-Feb-16 04:26N 51°19' E 004°18'0 0.0
2018-Feb-16 03:58N 51°19' E 004°18'0 0.0
2018-Feb-16 03:29N 51°19' E 004°18'0 0.0
2018-Feb-16 02:53N 51°19' E 004°18'0 0.0
2018-Feb-16 02:23N 51°19' E 004°18'0 0.0
2018-Feb-16 01:53N 51°19' E 004°18'0 0.0
2018-Feb-16 01:29N 51°19' E 004°18'0 0.0
2018-Feb-16 00:53N 51°19' E 004°18'0 0.0
2018-Feb-16 00:16N 51°19' E 004°18'0 0.0
2018-Feb-15 23:52N 51°19' E 004°18'0 0.0
2018-Feb-15 23:29N 51°19' E 004°18'0 0.0
2018-Feb-15 22:56N 51°19' E 004°18'0 0.0
2018-Feb-15 22:29N 51°19' E 004°18'0 0.0
2018-Feb-15 21:59N 51°19' E 004°18'0 0.0
2018-Feb-15 21:26N 51°19' E 004°18'0 0.0
2018-Feb-15 20:59N 51°19' E 004°18'0 0.0
2018-Feb-15 20:28N 51°19' E 004°18'0 0.0
2018-Feb-15 19:53N 51°19' E 004°18'0 0.0
2018-Feb-15 19:29N 51°19' E 004°18'0 0.0
2018-Feb-15 18:53N 51°19' E 004°18'0 0.0
2018-Feb-15 18:17N 51°19' E 004°18'0 0.0
2018-Feb-15 17:59N 51°19' E 004°18'0 0.0
2018-Feb-15 17:29N 51°19' E 004°18'0 0.0
2018-Feb-15 16:58N 51°19' E 004°18'0 0.0
2018-Feb-15 16:29N 51°19' E 004°18'0 0.0
2018-Feb-15 15:52N 51°19' E 004°18'0 0.0
2018-Feb-15 15:29N 51°19' E 004°18'1 1.6
2018-Feb-15 15:00N 51°20' E 004°18'1 2.8
2018-Feb-15 14:30N 51°21' E 004°17'0 0.0
2018-Feb-15 13:59N 51°21' E 004°17'0 0.0
2018-Feb-15 13:30N 51°21' E 004°17'2 3.1
2018-Feb-15 13:00N 51°19' E 004°16'3 5.5
2018-Feb-15 12:30N 51°17' E 004°15'0 0.0
2018-Feb-15 12:00N 51°17' E 004°15'0 0.0
2018-Feb-15 11:30N 51°17' E 004°15'1 1.3
2018-Feb-15 11:00N 51°17' E 004°14'0 0.0
2018-Feb-14 19:38N 51°17' E 004°14'0 0.0
2018-Feb-13 19:17N 51°17' E 004°14'0 0.4
2018-Feb-13 19:00N 51°17' E 004°14'1 2.4
2018-Feb-13 18:31N 51°16' E 004°13'0 0.0
2018-Feb-13 18:01N 51°16' E 004°13'0 0.0
2018-Feb-13 17:29N 51°16' E 004°13'0 0.0
2018-Feb-13 16:59N 51°16' E 004°13'0 0.0
2018-Feb-13 16:29N 51°16' E 004°13'0 0.0
2018-Feb-13 15:53N 51°16' E 004°13'0 0.0
2018-Feb-13 15:29N 51°16' E 004°13'0 0.0
2018-Feb-13 14:59N 51°16' E 004°13'0 0.0
2018-Feb-13 14:23N 51°16' E 004°13'0 0.0
2018-Feb-13 13:56N 51°16' E 004°13'0 0.0
2018-Feb-13 13:29N 51°16' E 004°13'0 0.0
2018-Feb-13 12:59N 51°16' E 004°13'0 0.0
2018-Feb-13 12:29N 51°16' E 004°13'0 0.0
2018-Feb-13 11:56N 51°16' E 004°13'0 0.0
2018-Feb-13 11:17N 51°16' E 004°13'0 0.0
2018-Feb-13 10:56N 51°16' E 004°13'0 0.0
2018-Feb-13 10:29N 51°16' E 004°13'0 0.0
2018-Feb-13 09:56N 51°16' E 004°13'0 0.0
2018-Feb-13 09:26N 51°16' E 004°13'0 0.0
2018-Feb-13 08:47N 51°16' E 004°13'0 0.0
2018-Feb-13 07:56N 51°16' E 004°13'0 0.0
2018-Feb-13 07:29N 51°16' E 004°13'0 0.0
2018-Feb-13 06:53N 51°16' E 004°13'0 0.0
2018-Feb-13 06:26N 51°16' E 004°13'0 0.0
2018-Feb-13 05:59N 51°16' E 004°13'0 0.0
2018-Feb-13 05:29N 51°16' E 004°13'0 0.0
2018-Feb-13 04:59N 51°16' E 004°13'0 0.0
2018-Feb-13 04:29N 51°16' E 004°13'0 0.0
2018-Feb-13 03:59N 51°16' E 004°13'0 0.0
2018-Feb-13 03:26N 51°16' E 004°13'0 0.0
2018-Feb-13 02:59N 51°16' E 004°13'0 0.0
2018-Feb-13 02:29N 51°16' E 004°13'0 0.0
2018-Feb-13 01:59N 51°16' E 004°13'0 0.0
2018-Feb-13 01:29N 51°16' E 004°13'0 0.0
2018-Feb-13 00:59N 51°16' E 004°13'0 0.0
2018-Feb-13 00:29N 51°16' E 004°13'0 0.0
2018-Feb-12 23:53N 51°16' E 004°13'0 0.0
2018-Feb-12 23:29N 51°16' E 004°13'0 0.0
2018-Feb-12 22:59N 51°16' E 004°13'0 0.0
2018-Feb-12 21:47N 51°16' E 004°13'0 0.0
2018-Feb-12 21:29N 51°16' E 004°13'0 0.0
2018-Feb-12 20:59N 51°16' E 004°13'0 0.0
2018-Feb-12 20:05N 51°16' E 004°13'0 0.0
2018-Feb-12 19:56N 51°16' E 004°13'0 0.0
2018-Feb-12 19:26N 51°16' E 004°13'0 0.0
2018-Feb-12 18:59N 51°16' E 004°13'0 0.0
2018-Feb-12 18:29N 51°16' E 004°13'0 0.0
2018-Feb-12 17:35N 51°16' E 004°13'0 0.0
2018-Feb-12 17:29N 51°16' E 004°13'0 0.0
2018-Feb-12 16:56N 51°16' E 004°13'0 0.0
2018-Feb-12 16:08N 51°16' E 004°13'0 0.0
2018-Feb-12 15:56N 51°16' E 004°13'0 0.0
2018-Feb-12 15:14N 51°16' E 004°13'0 0.0
2018-Feb-12 14:56N 51°16' E 004°13'0 0.0
2018-Feb-12 13:56N 51°16' E 004°13'0 0.0
2018-Feb-12 13:29N 51°16' E 004°13'0 0.0
2018-Feb-12 12:50N 51°16' E 004°13'0 0.0
2018-Feb-12 12:26N 51°16' E 004°13'0 0.0
2018-Feb-12 11:56N 51°16' E 004°13'0 0.0
2018-Feb-12 11:26N 51°16' E 004°13'0 0.0
2018-Feb-12 10:59N 51°16' E 004°13'0 0.0
2018-Feb-12 09:14N 51°16' E 004°13'0 0.0
2018-Feb-12 08:56N 51°16' E 004°13'0 0.0
2018-Feb-12 08:23N 51°16' E 004°13'0 0.0
2018-Feb-12 07:20N 51°16' E 004°13'0 0.0
2018-Feb-12 06:53N 51°16' E 004°13'0 0.0
2018-Feb-12 06:30N 51°16' E 004°13'0 0.0
2018-Feb-12 06:00N 51°16' E 004°13'0 0.0
2018-Feb-12 05:30N 51°16' E 004°13'1 2.0
2018-Feb-12 05:00N 51°16' E 004°14'0 0.8
2018-Feb-12 04:30N 51°17' E 004°15'0 0.0
2018-Feb-12 04:00N 51°17' E 004°15'0 0.1
2018-Feb-12 03:30N 51°17' E 004°15'2 4.1
2018-Feb-12 03:00N 51°19' E 004°16'3 6.6
2018-Feb-12 02:30N 51°22' E 004°14'3 6.1
2018-Feb-12 02:00N 51°23' E 004°09'5 9.4
2018-Feb-12 01:30N 51°24' E 004°02'3 5.8
2018-Feb-12 01:00N 51°24' E 003°57'611.5
2018-Feb-12 00:30N 51°21' E 003°50'611.7
2018-Feb-12 00:00N 51°24' E 003°43'5 9.6
2018-Feb-11 23:30N 51°26' E 003°35'4 8.6
2018-Feb-11 23:00N 51°25' E 003°28'1 1.1
2018-Feb-11 22:30N 51°25' E 003°28'0 0.9
2018-Feb-11 22:00N 51°25' E 003°29'1 1.2
2018-Feb-11 21:30N 51°25' E 003°30'1 1.2
2018-Feb-11 21:00N 51°26' E 003°30'3 5.1
2018-Feb-11 20:30N 51°26' E 003°35'1 1.2
2018-Feb-11 20:00N 51°25' E 003°34'612.1
2018-Feb-11 19:30N 51°24' E 003°24'611.6
2018-Feb-11 19:00N 51°25' E 003°15'611.0
2018-Feb-11 18:30N 51°24' E 003°06'511.0
2018-Feb-11 18:00N 51°25' E 002°58'510.7
2018-Feb-11 17:30N 51°25' E 002°49'5 9.6
2018-Feb-11 16:59N 51°22' E 002°43'4 7.6
2018-Feb-11 16:30N 51°24' E 002°37'2 2.3
2018-Feb-11 15:46N 51°25' E 002°36'0 0.0
2018-Feb-11 15:28N 51°25' E 002°36'0 0.0
2018-Feb-11 14:58N 51°25' E 002°36'0 0.1
2018-Feb-11 14:28N 51°25' E 002°36'0 0.0
2018-Feb-11 13:58N 51°25' E 002°36'0 0.1
2018-Feb-11 13:25N 51°25' E 002°36'0 0.0
2018-Feb-11 12:58N 51°25' E 002°36'0 0.0
2018-Feb-11 12:28N 51°25' E 002°36'0 0.0
2018-Feb-11 11:58N 51°25' E 002°36'0 0.0
2018-Feb-11 11:28N 51°25' E 002°36'0 0.0
2018-Feb-11 10:58N 51°25' E 002°36'0 0.0
2018-Feb-11 10:13N 51°25' E 002°36'0 0.1
2018-Feb-11 09:58N 51°25' E 002°36'0 0.0
2018-Feb-11 09:13N 51°25' E 002°36'0 0.0
2018-Feb-11 08:58N 51°25' E 002°36'0 0.0
2018-Feb-11 08:28N 51°25' E 002°36'0 0.0
2018-Feb-11 07:58N 51°25' E 002°36'0 0.0
2018-Feb-11 07:28N 51°25' E 002°36'0 0.0
2018-Feb-11 06:55N 51°25' E 002°36'0 0.0
2018-Feb-11 06:19N 51°25' E 002°36'0 0.0
2018-Feb-11 05:55N 51°25' E 002°36'0 0.0
2018-Feb-11 05:22N 51°25' E 002°36'0 0.0
2018-Feb-11 04:58N 51°25' E 002°36'0 0.0
2018-Feb-11 04:28N 51°25' E 002°36'0 0.1
2018-Feb-11 03:58N 51°25' E 002°36'0 0.0
2018-Feb-11 03:19N 51°25' E 002°36'0 0.2
2018-Feb-11 02:58N 51°25' E 002°36'0 0.0
2018-Feb-11 02:28N 51°25' E 002°36'0 0.0
2018-Feb-11 01:55N 51°25' E 002°35'0 0.1
2018-Feb-11 01:28N 51°25' E 002°36'0 0.0
2018-Feb-11 00:58N 51°25' E 002°36'0 0.0
2018-Feb-11 00:22N 51°25' E 002°36'0 0.0
2018-Feb-10 23:55N 51°25' E 002°36'0 0.0
2018-Feb-10 23:28N 51°25' E 002°36'0 0.0
2018-Feb-10 22:58N 51°25' E 002°36'0 0.0
2018-Feb-10 22:22N 51°25' E 002°36'0 0.0
2018-Feb-10 21:43N 51°25' E 002°36'0 0.0
2018-Feb-10 21:25N 51°25' E 002°36'0 0.0
2018-Feb-10 21:01N 51°25' E 002°36'0 0.0
2018-Feb-10 20:22N 51°25' E 002°36'0 0.0
2018-Feb-10 19:58N 51°25' E 002°36'0 0.0
2018-Feb-10 19:28N 51°25' E 002°36'0 0.0
2018-Feb-10 18:58N 51°25' E 002°36'0 0.0
2018-Feb-10 18:28N 51°25' E 002°35'0 0.0
2018-Feb-10 17:52N 51°25' E 002°35'0 0.0
2018-Feb-10 17:28N 51°25' E 002°35'0 0.1
2018-Feb-10 16:58N 51°25' E 002°35'0 0.0
2018-Feb-10 16:10N 51°25' E 002°36'0 0.0
2018-Feb-10 15:55N 51°25' E 002°36'0 0.0
2018-Feb-10 15:28N 51°25' E 002°36'0 0.0
2018-Feb-10 14:46N 51°25' E 002°36'0 0.0
2018-Feb-10 14:28N 51°25' E 002°36'0 0.0
2018-Feb-10 13:52N 51°25' E 002°36'0 0.0
2018-Feb-10 13:28N 51°25' E 002°36'0 0.0
2018-Feb-10 12:58N 51°25' E 002°36'0 0.0
2018-Feb-10 12:19N 51°25' E 002°36'0 0.0
2018-Feb-10 11:52N 51°25' E 002°36'0 0.0
2018-Feb-10 11:28N 51°25' E 002°36'0 0.0
2018-Feb-10 10:58N 51°25' E 002°36'0 0.0
2018-Feb-10 10:25N 51°25' E 002°36'0 0.0
2018-Feb-10 09:49N 51°25' E 002°36'0 0.0
2018-Feb-10 09:28N 51°25' E 002°36'0 0.1
2018-Feb-10 08:58N 51°25' E 002°36'0 0.1
2018-Feb-10 08:28N 51°25' E 002°36'0 0.1
2018-Feb-10 07:58N 51°25' E 002°36'0 0.1
2018-Feb-10 07:28N 51°25' E 002°36'0 0.1
2018-Feb-10 06:58N 51°25' E 002°35'0 0.0
2018-Feb-10 06:28N 51°25' E 002°35'0 0.1
2018-Feb-10 05:55N 51°25' E 002°35'0 0.1
2018-Feb-10 05:28N 51°25' E 002°35'0 0.1
2018-Feb-10 04:58N 51°25' E 002°35'0 0.0
2018-Feb-10 04:16N 51°25' E 002°35'0 0.0
2018-Feb-10 03:52N 51°25' E 002°35'0 0.0
2018-Feb-10 03:25N 51°25' E 002°35'0 1.1
2018-Feb-10 03:00N 51°25' E 002°36'4 7.9
2018-Feb-10 02:30N 51°22' E 002°31'611.7
2018-Feb-10 02:01N 51°19' E 002°23'612.0
2018-Feb-10 01:31N 51°16' E 002°15'612.1
2018-Feb-10 01:00N 51°13' E 002°06'612.4
2018-Feb-10 00:30N 51°10' E 001°57'612.3
2018-Feb-10 00:00N 51°08' E 001°48'612.1
2018-Feb-09 23:31N 51°04' E 001°41'612.4
2018-Feb-09 23:01N 50°59' E 001°35'312.8
2018-Feb-09 22:46N 50°57' E 001°31'912.0
2018-Feb-09 22:01N 50°49' E 001°24'12013.3
2018-Feb-09 13:01N 50°09' W 001°33'5213.1
2018-Feb-09 09:00N 49°49' W 002°49'  

Dump ship's entire track history